createdAt,value
2023-01-21T00:00:20.419Z,79.37
2023-01-21T00:02:52.376Z,79.56
2023-01-21T00:05:24.318Z,79.55
2023-01-21T00:07:56.332Z,79.51
2023-01-21T00:10:28.259Z,79.31
2023-01-21T00:13:00.219Z,79.26
2023-01-21T00:15:32.306Z,78.58
2023-01-21T00:18:04.503Z,78.25
2023-01-21T00:20:36.777Z,78.03
2023-01-21T00:23:11.090Z,78.13
2023-01-21T00:25:43.705Z,77.99
2023-01-21T00:28:15.862Z,77.72
2023-01-21T00:30:47.906Z,77.33
2023-01-21T00:33:19.943Z,77.21
2023-01-21T00:36:03.506Z,76.99
2023-01-21T00:38:36.023Z,77.62
2023-01-21T00:41:13.133Z,77.79
2023-01-21T00:43:45.275Z,77.67
2023-01-21T00:46:17.400Z,78.15
2023-01-21T00:48:49.444Z,77.87
2023-01-21T00:51:23.914Z,78.28
2023-01-21T00:53:56.097Z,79.04
2023-01-21T00:56:28.080Z,80.10
2023-01-21T00:59:00.582Z,80.50
2023-01-21T01:01:37.529Z,83.17
2023-01-21T01:04:11.435Z,83.56
2023-01-21T01:06:43.363Z,83.34
2023-01-21T01:09:15.924Z,82.56
2023-01-21T01:11:47.907Z,82.63
2023-01-21T01:14:19.878Z,82.74
2023-01-21T01:16:51.821Z,83.32
2023-01-21T01:19:23.809Z,83.63
2023-01-21T01:21:55.799Z,83.76
2023-01-21T01:24:27.829Z,83.80
2023-01-21T01:26:59.772Z,83.92
2023-01-21T01:29:31.880Z,84.35
2023-01-21T01:32:03.970Z,84.72
2023-01-21T01:34:36.175Z,84.57
2023-01-21T01:37:08.191Z,84.95
2023-01-21T01:39:40.164Z,85.05
2023-01-21T01:42:16.516Z,85.08
2023-01-21T01:44:56.576Z,85.00
2023-01-21T01:47:37.915Z,84.91
2023-01-21T01:50:15.912Z,85.21
2023-01-21T01:52:48.223Z,86.09
2023-01-21T01:55:20.336Z,86.84
2023-01-21T01:57:55.540Z,86.51
2023-01-21T02:00:28.243Z,85.96
2023-01-21T02:03:18.861Z,85.87
2023-01-21T02:05:51.743Z,85.61
2023-01-21T02:08:24.946Z,85.60
2023-01-21T02:10:56.967Z,85.63
2023-01-21T02:13:32.021Z,85.37
2023-01-21T02:16:11.166Z,85.33
2023-01-21T02:19:13.884Z,85.22
2023-01-21T02:22:03.064Z,85.17
2023-01-21T02:25:02.739Z,85.69
2023-01-21T02:28:01.164Z,85.77
2023-01-21T02:30:45.139Z,85.61
2023-01-21T02:33:52.036Z,85.51
2023-01-21T02:36:48.373Z,85.29
2023-01-21T02:39:44.960Z,85.66
2023-01-21T02:42:27.068Z,86.13
2023-01-21T02:45:10.570Z,86.01
2023-01-21T02:48:06.744Z,86.21
2023-01-21T02:50:45.741Z,86.21
2023-01-21T02:53:26.121Z,86.20
2023-01-21T02:56:14.434Z,86.55
2023-01-21T02:58:54.659Z,86.49
2023-01-21T03:01:35.529Z,86.41
2023-01-21T03:04:44.998Z,86.48
2023-01-21T03:07:45.243Z,86.54
2023-01-21T03:10:31.112Z,86.73
2023-01-21T03:13:13.641Z,86.49
2023-01-21T03:16:11.856Z,86.43
2023-01-21T03:18:50.854Z,86.38
2023-01-21T03:21:31.261Z,86.38
2023-01-21T03:24:04.101Z,86.28
2023-01-21T03:26:41.860Z,86.27
2023-01-21T03:29:24.437Z,86.46
2023-01-21T03:32:03.266Z,86.50
2023-01-21T03:34:41.902Z,86.44
2023-01-21T03:37:20.848Z,86.43
2023-01-21T03:40:11.509Z,86.45
2023-01-21T03:42:45.141Z,86.26
2023-01-21T03:45:24.853Z,86.10
2023-01-21T03:48:04.737Z,86.25
2023-01-21T03:50:44.637Z,85.94
2023-01-21T03:53:16.673Z,86.01
2023-01-21T03:55:51.608Z,86.02
2023-01-21T03:58:23.600Z,85.95
2023-01-21T04:00:55.569Z,86.00
2023-01-21T04:03:27.599Z,85.74
2023-01-21T04:05:59.586Z,85.63
2023-01-21T04:08:31.599Z,85.78
2023-01-21T04:11:03.565Z,85.60
2023-01-21T04:13:35.711Z,85.69
2023-01-21T04:16:08.212Z,86.24
2023-01-21T04:18:40.242Z,87.64
2023-01-21T04:21:12.235Z,87.99
2023-01-21T04:23:44.156Z,87.42
2023-01-21T04:26:16.785Z,86.55
2023-01-21T04:28:48.713Z,85.88
2023-01-21T04:31:20.783Z,85.86
2023-01-21T04:33:52.874Z,85.67
2023-01-21T04:36:25.154Z,85.94
2023-01-21T04:38:57.094Z,85.73
2023-01-21T04:41:29.070Z,85.79
2023-01-21T04:44:01.042Z,85.89
2023-01-21T04:46:33.018Z,86.03
2023-01-21T04:49:05.090Z,85.85
2023-01-21T04:51:37.046Z,85.89
2023-01-21T04:54:10.974Z,85.95
2023-01-21T04:56:42.923Z,85.95
2023-01-21T04:59:15.068Z,85.88
2023-01-21T05:01:47.370Z,85.74
2023-01-21T05:04:19.358Z,85.80
2023-01-21T05:06:51.482Z,85.63
2023-01-21T05:09:23.461Z,85.57
2023-01-21T05:11:55.392Z,85.62
2023-01-21T05:14:27.350Z,85.67
2023-01-21T05:20:51.652Z,100.00
2023-01-21T05:26:23.710Z,100.00
2023-01-21T05:31:55.758Z,100.00
2023-01-21T05:37:24.706Z,100.00
2023-01-21T05:42:53.793Z,100.00
2023-01-21T05:48:26.120Z,100.00
2023-01-21T05:53:58.137Z,100.00
2023-01-21T05:58:32.801Z,85.67
2023-01-21T06:02:27.044Z,100.00
2023-01-21T06:04:58.982Z,86.33
2023-01-21T06:07:30.951Z,86.72
2023-01-21T06:10:26.878Z,86.47
2023-01-21T06:12:58.794Z,86.54
2023-01-21T06:15:33.598Z,86.52
2023-01-21T06:18:06.989Z,86.48
2023-01-21T06:20:39.317Z,86.30
2023-01-21T06:23:11.313Z,86.10
2023-01-21T06:25:43.974Z,86.12
2023-01-21T06:28:15.909Z,86.01
2023-01-21T06:30:48.069Z,85.68
2023-01-21T06:33:20.146Z,85.44
2023-01-21T06:35:52.200Z,85.58
2023-01-21T06:38:24.178Z,85.32
2023-01-21T06:40:56.184Z,85.17
2023-01-21T06:43:38.002Z,85.58
2023-01-21T06:46:11.147Z,85.66
2023-01-21T06:48:43.636Z,85.50
2023-01-21T06:51:15.572Z,85.53
2023-01-21T06:53:47.563Z,85.50
2023-01-21T06:56:19.543Z,85.62
2023-01-21T06:58:51.421Z,85.84
2023-01-21T07:01:23.475Z,85.49
2023-01-21T07:03:55.607Z,85.70
2023-01-21T07:06:27.834Z,85.67
2023-01-21T07:08:59.771Z,85.79
2023-01-21T07:11:32.516Z,85.64
2023-01-21T07:14:04.454Z,85.45
2023-01-21T07:16:36.677Z,85.51
2023-01-21T07:19:08.767Z,85.40
2023-01-21T07:21:42.222Z,85.37
2023-01-21T07:24:14.186Z,85.58
2023-01-21T07:26:46.316Z,85.51
2023-01-21T07:29:18.838Z,85.44
2023-01-21T07:31:50.834Z,85.40
2023-01-21T07:34:22.691Z,85.26
2023-01-21T07:36:54.625Z,85.07
2023-01-21T07:39:26.655Z,85.03
2023-01-21T07:42:01.080Z,85.01
2023-01-21T07:44:35.164Z,84.85
2023-01-21T07:47:07.571Z,84.95
2023-01-21T07:49:41.107Z,84.62
2023-01-21T07:52:13.119Z,84.87
2023-01-21T07:54:45.224Z,84.45
2023-01-21T07:57:17.232Z,84.36
2023-01-21T07:59:49.229Z,84.35
2023-01-21T08:02:21.914Z,84.22
2023-01-21T08:04:54.153Z,84.01
2023-01-21T08:07:26.350Z,83.96
2023-01-21T08:09:58.569Z,84.46
2023-01-21T08:12:30.781Z,84.04
2023-01-21T08:15:02.787Z,84.13
2023-01-21T08:17:38.021Z,84.13
2023-01-21T08:20:12.079Z,84.11
2023-01-21T08:22:44.090Z,83.62
2023-01-21T08:25:16.757Z,83.92
2023-01-21T08:27:48.906Z,83.77
2023-01-21T08:30:21.192Z,83.68
2023-01-21T08:32:53.165Z,83.86
2023-01-21T08:35:25.242Z,84.04
2023-01-21T08:38:00.140Z,83.92
2023-01-21T08:40:32.233Z,84.25
2023-01-21T08:43:05.282Z,83.93
2023-01-21T08:45:37.262Z,84.20
2023-01-21T08:48:09.210Z,83.89
2023-01-21T08:50:41.228Z,83.86
2023-01-21T08:53:13.175Z,84.05
2023-01-21T08:55:45.136Z,84.25
2023-01-21T08:58:17.157Z,84.42
2023-01-21T09:00:49.494Z,84.42
2023-01-21T09:03:21.509Z,84.26
2023-01-21T09:05:53.473Z,84.34
2023-01-21T09:08:25.495Z,84.19
2023-01-21T09:11:01.751Z,84.33
2023-01-21T09:13:37.700Z,84.16
2023-01-21T09:16:11.955Z,84.10
2023-01-21T09:18:44.521Z,83.65
2023-01-21T09:21:17.252Z,83.54
2023-01-21T09:23:49.201Z,84.01
2023-01-21T09:26:23.348Z,84.44
2023-01-21T09:29:00.810Z,84.24
2023-01-21T09:31:32.789Z,83.74
2023-01-21T09:34:06.192Z,83.61
2023-01-21T09:36:38.944Z,84.19
2023-01-21T09:39:10.961Z,84.02
2023-01-21T09:41:54.677Z,83.42
2023-01-21T09:44:35.496Z,83.91
2023-01-21T09:47:08.728Z,83.66
2023-01-21T09:49:49.876Z,83.60
2023-01-21T09:52:33.532Z,83.53
2023-01-21T09:55:11.471Z,83.30
2023-01-21T09:57:58.723Z,83.15
2023-01-21T10:00:41.260Z,83.83
2023-01-21T10:03:17.647Z,83.50
2023-01-21T10:05:52.709Z,83.63
2023-01-21T10:08:30.636Z,83.57
2023-01-21T10:11:20.624Z,83.28
2023-01-21T10:14:10.637Z,83.48
2023-01-21T10:17:06.769Z,83.64
2023-01-21T10:20:14.104Z,83.49
2023-01-21T10:23:06.099Z,83.36
2023-01-21T10:25:40.031Z,83.51
2023-01-21T10:28:19.967Z,83.58
2023-01-21T10:31:09.671Z,83.66
2023-01-21T10:33:41.826Z,84.04
2023-01-21T10:36:13.676Z,83.93
2023-01-21T10:39:09.260Z,83.87
2023-01-21T10:41:56.169Z,84.12
2023-01-21T10:45:00.153Z,84.18
2023-01-21T10:47:50.626Z,83.85
2023-01-21T10:50:41.251Z,84.09
2023-01-21T10:53:22.796Z,84.04
2023-01-21T10:56:06.850Z,83.72
2023-01-21T10:58:48.948Z,83.64
2023-01-21T11:01:29.016Z,83.96
2023-01-21T11:04:07.546Z,83.57
2023-01-21T11:06:40.800Z,83.84
2023-01-21T11:09:14.979Z,83.89
2023-01-21T11:11:46.960Z,84.00
2023-01-21T11:14:21.203Z,83.92
2023-01-21T11:16:54.194Z,87.05
2023-01-21T11:19:30.744Z,84.97
2023-01-21T11:22:20.299Z,84.54
2023-01-21T11:24:53.073Z,84.06
2023-01-21T11:27:40.221Z,84.30
2023-01-21T11:30:49.750Z,84.23
2023-01-21T11:33:27.425Z,84.58
2023-01-21T11:36:12.191Z,84.43
2023-01-21T11:38:47.110Z,84.59
2023-01-21T11:41:23.089Z,84.70
2023-01-21T11:44:08.183Z,84.96
2023-01-21T11:46:41.529Z,85.22
2023-01-21T11:49:24.343Z,85.01
2023-01-21T11:52:17.255Z,84.86
2023-01-21T11:54:49.307Z,84.97
2023-01-21T11:57:28.101Z,84.79
2023-01-21T12:00:07.852Z,85.14
2023-01-21T12:02:44.779Z,84.69
2023-01-21T12:05:24.024Z,84.82
2023-01-21T12:07:56.586Z,84.99
2023-01-21T12:10:30.930Z,84.75
2023-01-21T12:13:48.766Z,85.20
2023-01-21T12:16:40.670Z,85.24
2023-01-21T12:19:37.222Z,85.08
2023-01-21T12:22:24.143Z,85.11
2023-01-21T12:25:26.520Z,85.17
2023-01-21T12:28:19.336Z,84.98
2023-01-21T12:31:12.350Z,85.02
2023-01-21T12:34:24.476Z,84.99
2023-01-21T12:37:14.462Z,84.85
2023-01-21T12:39:49.889Z,84.92
2023-01-21T12:42:35.259Z,84.85
2023-01-21T12:45:15.006Z,85.21
2023-01-21T12:48:43.297Z,85.04
2023-01-21T12:51:22.694Z,86.03
2023-01-21T12:54:11.897Z,86.07
2023-01-21T12:56:52.867Z,85.65
2023-01-21T12:59:38.855Z,85.56
2023-01-21T13:02:35.090Z,85.64
2023-01-21T13:05:19.171Z,85.43
2023-01-21T13:08:06.211Z,85.35
2023-01-21T13:10:42.599Z,85.03
2023-01-21T13:13:57.396Z,85.45
2023-01-21T13:16:30.862Z,85.57
2023-01-21T13:19:03.058Z,85.53
2023-01-21T13:21:44.053Z,85.32
2023-01-21T13:24:53.950Z,85.28
2023-01-21T13:27:31.958Z,85.59
2023-01-21T13:30:07.051Z,85.38
2023-01-21T13:32:58.846Z,85.40
2023-01-21T13:35:55.037Z,85.74
2023-01-21T13:38:54.474Z,85.88
2023-01-21T13:41:35.251Z,85.78
2023-01-21T13:44:20.345Z,85.96
2023-01-21T13:47:14.192Z,86.00
2023-01-21T13:50:23.676Z,86.05
2023-01-21T13:53:14.062Z,85.97
2023-01-21T13:56:01.612Z,86.00
2023-01-21T13:58:40.434Z,86.03
2023-01-21T14:01:19.136Z,86.06
2023-01-21T14:04:03.056Z,86.14
2023-01-21T14:06:43.294Z,86.27
2023-01-21T14:09:25.948Z,86.07
2023-01-21T14:12:05.014Z,86.13
2023-01-21T14:15:15.215Z,86.12
2023-01-21T14:18:05.915Z,86.17
2023-01-21T14:21:08.629Z,86.02
2023-01-21T14:23:53.121Z,85.87
2023-01-21T14:26:28.019Z,85.91
2023-01-21T14:29:21.127Z,86.08
2023-01-21T14:32:05.357Z,85.70
2023-01-21T14:34:42.959Z,85.68
2023-01-21T14:37:35.366Z,85.74
2023-01-21T14:40:19.889Z,85.90
2023-01-21T14:42:53.599Z,85.80
2023-01-21T14:45:51.958Z,86.19
2023-01-21T14:48:33.465Z,86.21
2023-01-21T14:51:08.496Z,86.33
2023-01-21T14:53:47.514Z,86.34
2023-01-21T14:56:23.955Z,86.29
2023-01-21T14:59:09.543Z,86.18
2023-01-21T15:01:45.694Z,85.77
2023-01-21T15:04:26.874Z,85.99
2023-01-21T15:07:08.944Z,85.95
2023-01-21T15:09:57.142Z,86.10
2023-01-21T15:12:33.477Z,86.03
2023-01-21T15:15:27.746Z,86.07
2023-01-21T15:18:23.116Z,86.26
2023-01-21T15:21:01.021Z,86.05
2023-01-21T15:23:32.890Z,85.62
2023-01-21T15:26:07.783Z,85.57
2023-01-21T15:28:44.578Z,87.87
2023-01-21T15:31:23.927Z,86.78
2023-01-21T15:33:59.418Z,85.98
2023-01-21T15:36:35.057Z,86.02
2023-01-21T15:39:18.017Z,85.57
2023-01-21T15:42:23.639Z,85.54
2023-01-21T15:45:02.873Z,85.57
2023-01-21T15:48:02.273Z,86.00
2023-01-21T15:50:59.517Z,85.71
2023-01-21T15:53:53.769Z,85.93
2023-01-21T15:56:50.641Z,86.02
2023-01-21T15:59:53.499Z,85.86
2023-01-21T16:02:32.557Z,86.11
2023-01-21T16:05:20.147Z,86.23
2023-01-21T16:08:21.285Z,86.19
2023-01-21T16:11:10.340Z,85.84
2023-01-21T16:13:51.460Z,85.73
2023-01-21T16:16:38.873Z,85.44
2023-01-21T16:19:15.615Z,85.69
2023-01-21T16:21:53.988Z,85.55
2023-01-21T16:24:28.776Z,85.39
2023-01-21T16:27:23.073Z,85.52
2023-01-21T16:29:57.072Z,85.73
2023-01-21T16:32:31.252Z,85.65
2023-01-21T16:35:03.608Z,85.51
2023-01-21T16:37:36.066Z,85.63
2023-01-21T16:40:25.724Z,85.56
2023-01-21T16:43:24.295Z,85.79
2023-01-21T16:46:03.949Z,85.55
2023-01-21T16:48:36.807Z,85.82
2023-01-21T16:51:24.699Z,85.79
2023-01-21T16:54:22.245Z,85.70
2023-01-21T16:56:59.839Z,85.29
2023-01-21T16:59:48.612Z,85.24
2023-01-21T17:02:34.392Z,85.63
2023-01-21T17:05:07.367Z,85.61
2023-01-21T17:07:51.070Z,85.66
2023-01-21T17:10:55.279Z,85.23
2023-01-21T17:13:30.021Z,85.68
2023-01-21T17:16:03.803Z,85.15
2023-01-21T17:18:43.096Z,85.32
2023-01-21T17:21:28.410Z,85.15
2023-01-21T17:24:05.015Z,85.25
2023-01-21T17:26:46.488Z,85.73
2023-01-21T17:29:26.751Z,85.66
2023-01-21T17:31:59.982Z,85.45
2023-01-21T17:34:36.937Z,85.55
2023-01-21T17:37:40.096Z,85.25
2023-01-21T17:40:42.849Z,85.22
2023-01-21T17:43:21.933Z,85.41
2023-01-21T17:45:56.513Z,85.40
2023-01-21T17:48:39.050Z,85.22
2023-01-21T17:51:19.622Z,85.38
2023-01-21T17:53:59.265Z,85.64
2023-01-21T17:56:41.694Z,85.53
2023-01-21T17:59:35.217Z,85.51
2023-01-21T18:02:12.838Z,85.46
2023-01-21T18:04:45.055Z,85.56
2023-01-21T18:07:32.196Z,85.43
2023-01-21T18:10:04.427Z,84.96
2023-01-21T18:12:36.432Z,85.20
2023-01-21T18:15:09.764Z,84.91
2023-01-21T18:18:03.421Z,84.72
2023-01-21T18:20:36.602Z,85.05
2023-01-21T18:23:11.992Z,85.06
2023-01-21T18:25:49.939Z,85.22
2023-01-21T18:28:24.692Z,85.25
2023-01-21T18:30:57.966Z,85.58
2023-01-21T18:33:31.305Z,85.39
2023-01-21T18:36:03.381Z,85.14
2023-01-21T18:38:36.132Z,85.17
2023-01-21T18:41:09.152Z,85.37
2023-01-21T18:43:42.206Z,85.63
2023-01-21T18:46:16.598Z,85.69
2023-01-21T18:48:48.703Z,85.26
2023-01-21T18:51:20.670Z,85.09
2023-01-21T18:53:52.588Z,85.41
2023-01-21T18:56:24.518Z,85.49
2023-01-21T18:58:56.492Z,85.23
2023-01-21T19:01:28.667Z,85.28
2023-01-21T19:04:00.607Z,85.05
2023-01-21T19:06:32.561Z,85.05
2023-01-21T19:09:20.819Z,85.11
2023-01-21T19:11:53.033Z,85.13
2023-01-21T19:14:25.043Z,85.24
2023-01-21T19:16:56.961Z,85.58
2023-01-21T19:19:28.952Z,85.50
2023-01-21T19:22:00.887Z,85.63
2023-01-21T19:24:32.918Z,85.29
2023-01-21T19:27:06.566Z,84.89
2023-01-21T19:29:38.511Z,84.95
2023-01-21T19:32:15.368Z,84.89
2023-01-21T19:34:47.459Z,84.71
2023-01-21T19:37:24.607Z,85.02
2023-01-21T19:39:56.568Z,84.83
2023-01-21T19:42:28.492Z,85.11
2023-01-21T19:45:00.656Z,85.02
2023-01-21T19:47:32.654Z,85.04
2023-01-21T19:50:06.640Z,84.53
2023-01-21T19:52:38.526Z,84.53
2023-01-21T19:55:15.615Z,84.60
2023-01-21T19:57:53.050Z,84.48
2023-01-21T20:00:35.641Z,84.83
2023-01-21T20:03:11.790Z,85.03
2023-01-21T20:05:43.938Z,85.19
2023-01-21T20:08:21.426Z,84.74
2023-01-21T20:10:53.394Z,84.53
2023-01-21T20:13:26.371Z,84.42
2023-01-21T20:16:04.003Z,84.67
2023-01-21T20:18:36.118Z,84.41
2023-01-21T20:21:08.163Z,84.70
2023-01-21T20:23:40.147Z,85.05
2023-01-21T20:26:21.595Z,85.14
2023-01-21T20:28:54.987Z,84.71
2023-01-21T20:31:27.032Z,84.64
2023-01-21T20:33:59.096Z,84.71
2023-01-21T20:36:31.124Z,85.09
2023-01-21T20:39:03.196Z,84.73
2023-01-21T20:41:35.156Z,84.48
2023-01-21T20:44:07.527Z,84.47
2023-01-21T20:46:39.985Z,84.33
2023-01-21T20:49:12.643Z,84.87
2023-01-21T20:51:44.592Z,84.67
2023-01-21T20:54:16.548Z,84.53
2023-01-21T20:56:48.609Z,84.69
2023-01-21T20:59:22.071Z,84.59
2023-01-21T21:01:55.699Z,84.45
2023-01-21T21:04:29.874Z,84.69
2023-01-21T21:07:01.802Z,84.54
2023-01-21T21:09:36.545Z,84.47
2023-01-21T21:12:08.482Z,84.76
2023-01-21T21:14:40.403Z,84.98
2023-01-21T21:17:12.586Z,84.79
2023-01-21T21:19:47.457Z,84.97
2023-01-21T21:22:19.544Z,84.87
2023-01-21T21:24:51.560Z,85.03
2023-01-21T21:27:23.553Z,84.92
2023-01-21T21:29:59.495Z,85.08
2023-01-21T21:32:31.843Z,84.90
2023-01-21T21:35:03.897Z,84.52
2023-01-21T21:37:35.895Z,84.63
2023-01-21T21:40:08.847Z,84.72
2023-01-21T21:42:59.161Z,84.57
2023-01-21T21:45:31.215Z,84.73
2023-01-21T21:48:23.035Z,84.88
2023-01-21T21:50:56.836Z,84.58
2023-01-21T21:53:30.785Z,84.55
2023-01-21T21:56:04.767Z,84.27
2023-01-21T21:58:37.151Z,84.58
2023-01-21T22:01:19.798Z,84.88
2023-01-21T22:03:52.240Z,84.90
2023-01-21T22:06:24.197Z,84.96
2023-01-21T22:08:58.677Z,84.93
2023-01-21T22:11:31.144Z,84.79
2023-01-21T22:14:04.564Z,84.78
2023-01-21T22:16:36.961Z,84.90
2023-01-21T22:19:08.939Z,85.30
2023-01-21T22:21:40.889Z,85.08
2023-01-21T22:24:12.866Z,84.93
2023-01-21T22:26:44.979Z,85.14
2023-01-21T22:29:16.954Z,85.27
2023-01-21T22:31:49.063Z,85.18
2023-01-21T22:34:21.090Z,84.93
2023-01-21T22:36:53.256Z,85.13
2023-01-21T22:39:25.461Z,84.92
2023-01-21T22:42:00.478Z,84.65
2023-01-21T22:44:32.424Z,84.24
2023-01-21T22:47:04.420Z,84.76
2023-01-21T22:49:36.379Z,84.41
2023-01-21T22:52:08.391Z,84.29
2023-01-21T22:54:40.259Z,84.22
2023-01-21T22:57:12.204Z,84.27
2023-01-21T22:59:44.268Z,84.28
2023-01-21T23:02:16.607Z,84.01
2023-01-21T23:04:48.543Z,83.88
2023-01-21T23:07:20.542Z,84.18
2023-01-21T23:09:52.551Z,83.97
2023-01-21T23:12:24.672Z,83.77
2023-01-21T23:14:56.600Z,83.98
2023-01-21T23:17:28.519Z,83.70
2023-01-21T23:20:00.496Z,83.51
2023-01-21T23:22:33.796Z,83.50
2023-01-21T23:25:06.461Z,83.38
2023-01-21T23:27:38.480Z,83.62
2023-01-21T23:30:11.244Z,83.57
2023-01-21T23:32:43.403Z,83.36
2023-01-21T23:35:15.406Z,83.26
2023-01-21T23:37:47.254Z,83.31
2023-01-21T23:40:19.664Z,83.26
2023-01-21T23:42:52.036Z,83.24
2023-01-21T23:45:24.136Z,83.06
2023-01-21T23:47:57.700Z,82.79
2023-01-21T23:50:29.644Z,82.59
2023-01-21T23:53:01.607Z,82.96
2023-01-21T23:55:33.586Z,82.94
2023-01-21T23:58:05.620Z,82.80
